createdAt,value
2023-04-17T00:01:05.738Z,29.90
2023-04-17T00:03:33.668Z,32.80
2023-04-17T00:06:01.058Z,28.38
2023-04-17T00:08:28.285Z,34.22
2023-04-17T00:11:06.461Z,37.92
2023-04-17T00:13:35.701Z,34.35
2023-04-17T00:16:03.164Z,37.95
2023-04-17T00:18:30.553Z,35.10
2023-04-17T00:20:57.748Z,38.38
2023-04-17T00:23:26.230Z,36.13
2023-04-17T00:25:53.486Z,37.38
2023-04-17T00:28:20.843Z,36.45
2023-04-17T00:30:48.073Z,34.17
2023-04-17T00:33:15.698Z,38.50
2023-04-17T00:35:42.883Z,37.67
2023-04-17T00:38:10.250Z,33.60
2023-04-17T00:40:37.623Z,40.65
2023-04-17T00:43:08.991Z,37.40
2023-04-17T00:45:36.235Z,34.95
2023-04-17T00:48:06.895Z,30.48
2023-04-17T00:53:02.083Z,35.63
2023-04-17T00:55:31.214Z,35.13
2023-04-17T00:57:58.970Z,31.75
2023-04-17T01:00:26.444Z,37.50
2023-04-17T01:02:56.703Z,37.63
2023-04-17T01:05:25.774Z,38.30
2023-04-17T01:07:54.310Z,34.63
2023-04-17T01:10:21.727Z,40.83
2023-04-17T01:13:02.042Z,38.67
2023-04-17T01:15:29.528Z,39.17
2023-04-17T01:17:57.314Z,35.78
2023-04-17T01:20:25.442Z,35.53
2023-04-17T01:22:53.095Z,39.78
2023-04-17T01:25:20.446Z,34.13
2023-04-17T01:27:47.830Z,37.83
2023-04-17T01:30:15.099Z,40.80
2023-04-17T01:32:57.994Z,41.03
2023-04-17T01:35:25.307Z,41.35
2023-04-17T01:37:52.577Z,49.08
2023-04-17T01:40:20.016Z,41.53
2023-04-17T01:42:47.387Z,44.40
2023-04-17T01:45:15.262Z,42.90
2023-04-17T01:47:42.567Z,43.15
2023-04-17T01:50:10.365Z,42.72
2023-04-17T01:52:37.660Z,44.42
2023-04-17T01:55:05.198Z,40.42
2023-04-17T01:57:33.406Z,39.83
2023-04-17T02:00:00.753Z,40.63
2023-04-17T02:02:28.107Z,45.60
2023-04-17T02:04:55.370Z,45.67
2023-04-17T02:07:22.991Z,40.70
2023-04-17T02:09:50.176Z,40.58
2023-04-17T02:12:17.431Z,44.97
2023-04-17T02:14:44.625Z,41.80
2023-04-17T02:17:11.858Z,55.38
2023-04-17T02:19:39.040Z,52.95
2023-04-17T02:22:06.424Z,53.95
2023-04-17T02:24:33.759Z,52.90
2023-04-17T02:27:01.930Z,62.67
2023-04-17T02:31:58.785Z,71.13
2023-04-17T02:34:26.550Z,59.13
2023-04-17T02:36:55.320Z,58.65
2023-04-17T02:39:24.569Z,63.53
2023-04-17T02:41:51.763Z,50.95
2023-04-17T02:44:18.943Z,52.00
2023-04-17T02:46:46.231Z,57.22
2023-04-17T02:49:14.262Z,55.00
2023-04-17T02:51:41.773Z,53.13
2023-04-17T02:54:09.215Z,56.45
2023-04-17T02:56:36.490Z,65.43
2023-04-17T02:59:03.719Z,71.15
2023-04-17T03:01:31.173Z,75.65
2023-04-17T03:03:58.840Z,56.80
2023-04-17T03:06:26.755Z,54.65
2023-04-17T03:08:54.012Z,51.35
2023-04-17T03:11:21.795Z,55.22
2023-04-17T03:13:49.505Z,49.75
2023-04-17T03:16:16.755Z,56.38
2023-04-17T03:18:46.632Z,57.05
2023-04-17T03:21:13.896Z,49.55
2023-04-17T03:23:41.510Z,47.13
2023-04-17T03:26:09.464Z,47.88
2023-04-17T03:28:37.595Z,50.03
2023-04-17T03:31:06.511Z,52.65
2023-04-17T03:33:35.054Z,58.15
2023-04-17T03:36:02.522Z,44.33
2023-04-17T03:38:29.974Z,54.97
2023-04-17T03:40:59.211Z,49.88
2023-04-17T03:43:27.069Z,51.13
2023-04-17T03:45:54.335Z,49.88
2023-04-17T03:48:22.569Z,47.38
2023-04-17T03:50:52.628Z,41.28
2023-04-17T03:53:20.664Z,42.78
2023-04-17T03:55:49.612Z,40.28
2023-04-17T03:58:25.670Z,34.92
2023-04-17T04:00:58.546Z,34.58
2023-04-17T04:03:30.573Z,38.60
2023-04-17T04:05:59.409Z,32.63
2023-04-17T04:08:26.715Z,32.97
2023-04-17T04:10:55.365Z,32.05
2023-04-17T04:13:32.031Z,32.85
2023-04-17T04:16:01.833Z,29.53
2023-04-17T04:18:30.903Z,32.13
2023-04-17T04:20:58.853Z,35.83
2023-04-17T04:23:30.943Z,30.50
2023-04-17T04:26:01.708Z,33.35
2023-04-17T04:28:38.192Z,36.20
2023-04-17T04:31:08.445Z,32.90
2023-04-17T04:33:40.409Z,28.98
2023-04-17T04:36:07.932Z,28.27
2023-04-17T04:38:36.093Z,28.00
2023-04-17T04:41:17.571Z,28.60
2023-04-17T04:43:44.808Z,25.23
2023-04-17T04:46:12.823Z,23.63
2023-04-17T04:48:44.747Z,18.92
2023-04-17T04:51:13.062Z,18.98
2023-04-17T04:53:41.051Z,22.45
2023-04-17T04:56:08.592Z,19.95
2023-04-17T04:58:36.488Z,18.98
2023-04-17T05:01:05.252Z,16.98
2023-04-17T05:03:41.329Z,17.23
2023-04-17T05:06:11.395Z,21.67
2023-04-17T05:08:45.088Z,20.70
2023-04-17T05:11:15.592Z,19.92
2023-04-17T05:13:43.658Z,20.80
2023-04-17T05:16:19.237Z,21.77
2023-04-17T05:18:48.093Z,19.42
2023-04-17T05:21:19.177Z,18.42
2023-04-17T05:23:49.799Z,20.50
2023-04-17T05:26:17.060Z,22.60
2023-04-17T05:28:45.169Z,17.48
2023-04-17T05:31:16.015Z,24.10
2023-04-17T05:33:43.838Z,22.20
2023-04-17T05:36:11.366Z,17.73
2023-04-17T05:38:40.837Z,18.60
2023-04-17T05:41:10.608Z,18.98
2023-04-17T05:43:38.525Z,22.38
2023-04-17T05:46:08.227Z,18.23
2023-04-17T05:48:35.560Z,23.08
2023-04-17T05:51:04.778Z,21.98
2023-04-17T05:53:33.377Z,17.98
2023-04-17T05:56:03.345Z,20.98
2023-04-17T05:58:36.123Z,19.80
2023-04-17T06:01:06.464Z,19.23
2023-04-17T06:03:34.581Z,20.80
2023-04-17T06:06:17.121Z,21.75
2023-04-17T06:08:44.381Z,15.85
2023-04-17T06:11:11.999Z,19.13
2023-04-17T06:13:39.343Z,17.50
2023-04-17T06:16:06.852Z,22.63
2023-04-17T06:18:34.103Z,22.55
2023-04-17T06:21:01.384Z,23.10
2023-04-17T06:23:29.107Z,20.63
2023-04-17T06:25:56.795Z,26.25
2023-04-17T06:28:24.080Z,20.63
2023-04-17T06:30:54.117Z,13.98
2023-04-17T06:33:23.119Z,17.85
2023-04-17T06:35:51.970Z,15.68
2023-04-17T06:38:36.457Z,16.17
2023-04-17T06:41:03.928Z,11.85
2023-04-17T06:43:31.110Z,17.80
2023-04-17T06:48:33.539Z,16.95
2023-04-17T06:51:01.341Z,14.30
2023-04-17T06:53:28.670Z,13.35
2023-04-17T06:55:55.885Z,16.05
2023-04-17T06:58:23.160Z,15.43
2023-04-17T07:00:50.433Z,17.58
2023-04-17T07:03:17.797Z,15.05
2023-04-17T07:05:45.233Z,13.95
2023-04-17T07:08:12.476Z,14.00
2023-04-17T07:10:39.684Z,16.13
2023-04-17T07:13:07.041Z,15.77
2023-04-17T07:15:34.436Z,13.50
2023-04-17T07:18:01.760Z,12.45
2023-04-17T07:20:29.136Z,13.40
2023-04-17T07:22:56.750Z,16.33
2023-04-17T07:25:24.165Z,10.63
2023-04-17T07:27:51.651Z,11.90
2023-04-17T07:30:18.858Z,12.35
2023-04-17T07:32:46.429Z,12.73
2023-04-17T07:35:13.811Z,11.80
2023-04-17T07:37:41.224Z,15.38
2023-04-17T07:40:10.678Z,13.70
2023-04-17T07:42:38.116Z,11.82
2023-04-17T07:45:06.302Z,13.68
2023-04-17T07:47:33.866Z,13.45
2023-04-17T07:50:01.410Z,10.88
2023-04-17T07:52:29.707Z,12.10
2023-04-17T07:54:57.133Z,12.48
2023-04-17T07:57:26.469Z,14.15
2023-04-17T07:59:54.068Z,11.23
2023-04-17T08:02:22.976Z,10.82
2023-04-17T08:04:52.288Z,14.13
2023-04-17T08:07:20.279Z,14.35
2023-04-17T08:09:47.821Z,11.55
2023-04-17T08:12:15.158Z,16.42
2023-04-17T08:14:43.774Z,14.60
2023-04-17T08:17:11.222Z,15.27
2023-04-17T08:19:38.447Z,14.93
2023-04-17T08:22:07.002Z,13.35
2023-04-17T08:24:34.294Z,16.55
2023-04-17T08:27:01.597Z,16.33
2023-04-17T08:29:28.944Z,18.02
2023-04-17T08:32:12.731Z,13.13
2023-04-17T08:34:42.620Z,15.07
2023-04-17T08:37:09.806Z,15.23
2023-04-17T08:39:37.065Z,16.95
2023-04-17T08:42:10.012Z,12.10
2023-04-17T08:44:39.327Z,9.98
2023-04-17T08:47:09.087Z,12.18
2023-04-17T08:49:36.466Z,15.83
2023-04-17T08:52:05.158Z,11.75
2023-04-17T08:54:33.480Z,12.15
2023-04-17T08:57:04.941Z,15.55
2023-04-17T08:59:32.602Z,10.55
2023-04-17T09:02:07.913Z,18.30
2023-04-17T09:04:45.803Z,12.77
2023-04-17T09:07:15.427Z,13.30
2023-04-17T09:09:50.098Z,12.05
2023-04-17T09:12:18.798Z,15.85
2023-04-17T09:14:46.028Z,14.27
2023-04-17T09:17:17.513Z,17.88
2023-04-17T09:20:12.358Z,14.95
2023-04-17T09:22:40.920Z,16.00
2023-04-17T09:25:23.272Z,12.63
2023-04-17T09:27:50.542Z,10.05
2023-04-17T09:30:17.920Z,13.48
2023-04-17T09:32:45.185Z,12.02
2023-04-17T09:35:23.791Z,11.32
2023-04-17T09:37:53.631Z,14.55
2023-04-17T09:40:23.089Z,9.88
2023-04-17T09:42:54.082Z,10.65
2023-04-17T09:45:22.352Z,13.75
2023-04-17T09:47:51.083Z,9.95
2023-04-17T09:50:22.031Z,14.93
2023-04-17T09:52:54.039Z,15.35
2023-04-17T09:55:23.786Z,12.85
2023-04-17T09:57:54.722Z,16.45
2023-04-17T10:00:23.732Z,10.60
2023-04-17T10:02:54.837Z,14.40
2023-04-17T10:05:28.925Z,14.93
2023-04-17T10:07:57.119Z,16.45
2023-04-17T10:10:26.289Z,16.17
2023-04-17T10:12:56.495Z,15.32
2023-04-17T10:15:24.832Z,17.35
2023-04-17T10:17:53.085Z,13.57
2023-04-17T10:20:32.676Z,15.68
2023-04-17T10:23:01.289Z,13.57
2023-04-17T10:25:29.116Z,15.38
2023-04-17T10:28:00.856Z,16.08
2023-04-17T10:30:52.100Z,14.60
2023-04-17T10:33:24.888Z,18.48
2023-04-17T10:35:53.089Z,13.32
2023-04-17T10:38:32.739Z,16.85
2023-04-17T10:41:03.223Z,12.73
2023-04-17T10:43:30.595Z,16.10
2023-04-17T10:46:03.841Z,15.73
2023-04-17T10:48:50.545Z,16.85
2023-04-17T10:51:24.017Z,17.98
2023-04-17T10:53:55.728Z,15.43
2023-04-17T10:56:37.959Z,18.20
2023-04-17T10:59:11.059Z,20.27
2023-04-17T11:01:47.899Z,16.15
2023-04-17T11:04:23.776Z,17.98
2023-04-17T11:06:55.601Z,15.35
2023-04-17T11:09:28.688Z,16.98
2023-04-17T11:11:59.958Z,17.80
2023-04-17T11:14:27.834Z,18.52
2023-04-17T11:16:56.099Z,18.00
2023-04-17T11:19:25.034Z,18.05
2023-04-17T11:21:54.698Z,18.52
2023-04-17T11:24:32.254Z,20.02
2023-04-17T11:27:01.397Z,18.80
2023-04-17T11:29:29.270Z,19.08
2023-04-17T11:31:57.615Z,19.33
2023-04-17T11:34:28.187Z,20.45
2023-04-17T11:39:26.519Z,19.38
2023-04-17T11:41:54.025Z,18.95
2023-04-17T11:44:21.640Z,18.98
2023-04-17T11:46:59.281Z,20.52
2023-04-17T11:49:31.506Z,21.33
2023-04-17T11:52:04.408Z,19.02
2023-04-17T11:54:37.040Z,21.58
2023-04-17T11:57:12.607Z,20.60
2023-04-17T11:59:42.205Z,19.77
2023-04-17T12:02:10.055Z,19.60
2023-04-17T12:04:39.716Z,18.45
2023-04-17T12:07:08.731Z,19.17
2023-04-17T12:09:36.465Z,19.25
2023-04-17T12:12:05.470Z,18.98
2023-04-17T12:14:33.079Z,18.02
2023-04-17T12:17:00.423Z,17.65
2023-04-17T12:19:29.570Z,19.15
2023-04-17T12:21:57.491Z,16.63
2023-04-17T12:24:25.310Z,18.35
2023-04-17T12:26:53.087Z,24.05
2023-04-17T12:29:29.588Z,17.70
2023-04-17T12:32:07.966Z,16.75
2023-04-17T12:34:35.363Z,18.45
2023-04-17T12:37:02.598Z,17.90
2023-04-17T12:39:29.768Z,17.92
2023-04-17T12:41:57.002Z,17.83
2023-04-17T12:44:24.203Z,20.60
2023-04-17T12:46:51.414Z,21.70
2023-04-17T12:49:20.546Z,17.58
2023-04-17T12:51:47.795Z,16.70
2023-04-17T12:54:15.174Z,17.60
2023-04-17T12:56:42.459Z,17.13
2023-04-17T12:59:10.379Z,16.88
2023-04-17T13:01:37.787Z,23.60
2023-04-17T13:04:05.660Z,17.17
2023-04-17T13:06:33.084Z,17.08
2023-04-17T13:09:00.365Z,17.77
2023-04-17T13:11:27.583Z,20.70
2023-04-17T13:13:54.864Z,17.88
2023-04-17T13:16:22.179Z,18.13
2023-04-17T13:18:49.424Z,17.08
2023-04-17T13:21:16.785Z,15.40
2023-04-17T13:23:43.940Z,15.55
2023-04-17T13:26:11.278Z,16.38
2023-04-17T13:28:39.819Z,19.50
2023-04-17T13:31:07.299Z,15.75
2023-04-17T13:33:34.704Z,14.32
2023-04-17T13:36:02.022Z,15.00
2023-04-17T13:38:30.483Z,12.55
2023-04-17T13:40:57.714Z,14.13
2023-04-17T13:43:24.935Z,15.20
2023-04-17T13:45:54.954Z,17.38
2023-04-17T13:48:22.822Z,18.55
2023-04-17T13:50:50.119Z,16.15
2023-04-17T13:53:17.336Z,15.98
2023-04-17T13:55:44.655Z,12.43
2023-04-17T13:58:11.953Z,11.73
2023-04-17T14:00:39.486Z,11.82
2023-04-17T14:03:06.947Z,12.85
2023-04-17T14:05:35.672Z,18.02
2023-04-17T14:08:02.959Z,12.32
2023-04-17T14:10:30.129Z,9.45
2023-04-17T14:12:57.372Z,9.63
2023-04-17T14:15:24.704Z,13.45
2023-04-17T14:17:52.290Z,12.90
2023-04-17T14:20:20.156Z,14.10
2023-04-17T14:22:47.364Z,11.45
2023-04-17T14:25:15.330Z,10.73
2023-04-17T14:27:42.758Z,11.02
2023-04-17T14:30:10.288Z,11.90
2023-04-17T14:32:38.606Z,13.73
2023-04-17T14:35:06.724Z,13.90
2023-04-17T14:37:34.195Z,13.93
2023-04-17T14:40:01.620Z,12.48
2023-04-17T14:42:28.923Z,13.77
2023-04-17T14:44:56.138Z,15.90
2023-04-17T14:47:23.450Z,11.85
2023-04-17T14:49:51.051Z,15.02
2023-04-17T14:52:18.301Z,15.82
2023-04-17T14:54:45.633Z,13.82
2023-04-17T14:57:12.883Z,12.27
2023-04-17T14:59:40.524Z,16.05
2023-04-17T15:02:07.944Z,13.85
2023-04-17T15:04:35.350Z,15.18
2023-04-17T15:07:03.186Z,13.55
2023-04-17T15:09:30.781Z,11.50
2023-04-17T15:11:57.988Z,13.23
2023-04-17T15:14:25.853Z,16.50
2023-04-17T15:16:54.400Z,13.60
2023-04-17T15:19:21.789Z,14.80
2023-04-17T15:21:49.033Z,15.75
2023-04-17T15:24:16.464Z,14.35
2023-04-17T15:26:45.171Z,15.50
2023-04-17T15:29:12.831Z,15.10
2023-04-17T15:31:40.535Z,13.27
2023-04-17T15:34:07.890Z,11.63
2023-04-17T15:36:35.172Z,13.00
2023-04-17T15:39:02.429Z,12.55
2023-04-17T15:41:29.874Z,12.88
2023-04-17T15:43:57.110Z,12.90
2023-04-17T15:46:24.513Z,26.70
2023-04-17T15:49:05.017Z,10.32
2023-04-17T15:51:40.942Z,10.52
2023-04-17T15:54:11.883Z,15.50
2023-04-17T15:56:39.678Z,12.80
2023-04-17T15:59:07.095Z,12.90
2023-04-17T16:01:34.412Z,12.57
2023-04-17T16:04:02.070Z,14.50
2023-04-17T16:06:29.550Z,13.00
2023-04-17T16:08:57.248Z,12.75
2023-04-17T16:11:25.624Z,16.52
2023-04-17T16:13:52.852Z,17.50
2023-04-17T16:16:20.185Z,14.48
2023-04-17T16:18:47.760Z,13.23
2023-04-17T16:21:15.041Z,15.23
2023-04-17T16:23:42.377Z,12.30
2023-04-17T16:26:10.765Z,15.63
2023-04-17T16:28:38.028Z,16.35
2023-04-17T16:31:05.485Z,13.82
2023-04-17T16:33:32.833Z,11.77
2023-04-17T16:36:00.050Z,13.00
2023-04-17T16:38:27.609Z,11.57
2023-04-17T16:40:57.062Z,12.25
2023-04-17T16:43:24.745Z,13.73
2023-04-17T16:45:51.906Z,12.57
2023-04-17T16:48:19.198Z,15.23
2023-04-17T16:50:46.562Z,13.07
2023-04-17T16:53:13.809Z,12.18
2023-04-17T16:55:41.010Z,13.85
2023-04-17T16:58:08.303Z,12.82
2023-04-17T17:00:36.172Z,15.48
2023-04-17T17:03:04.194Z,12.55
2023-04-17T17:05:31.412Z,13.88
2023-04-17T17:07:58.904Z,13.32
2023-04-17T17:10:26.083Z,16.80
2023-04-17T17:12:53.390Z,16.77
2023-04-17T17:15:21.419Z,17.92
2023-04-17T17:17:48.882Z,19.50
2023-04-17T17:20:16.301Z,18.52
2023-04-17T17:22:43.530Z,20.60
2023-04-17T17:25:10.852Z,23.83
2023-04-17T17:27:38.126Z,18.33
2023-04-17T17:30:05.976Z,17.13
2023-04-17T17:32:33.321Z,16.48
2023-04-17T17:35:00.700Z,16.25
2023-04-17T17:37:28.293Z,16.25
2023-04-17T17:39:55.578Z,13.77
2023-04-17T17:42:22.889Z,15.23
2023-04-17T17:44:50.347Z,17.25
2023-04-17T17:47:17.639Z,14.20
2023-04-17T17:49:44.837Z,16.63
2023-04-17T17:52:12.104Z,15.02
2023-04-17T17:54:39.716Z,14.43
2023-04-17T17:57:07.024Z,17.20
2023-04-17T17:59:34.411Z,15.82
2023-04-17T18:02:02.505Z,18.00
2023-04-17T18:04:30.206Z,16.02
2023-04-17T18:06:57.754Z,16.83
2023-04-17T18:09:25.157Z,12.05
2023-04-17T18:11:52.736Z,15.57
2023-04-17T18:14:20.072Z,19.70
2023-04-17T18:16:48.488Z,12.30
2023-04-17T18:19:15.867Z,10.52
2023-04-17T18:21:43.783Z,14.07
2023-04-17T18:24:12.008Z,10.63
2023-04-17T18:26:39.413Z,10.10
2023-04-17T18:29:07.072Z,11.32
2023-04-17T18:31:34.448Z,9.50
2023-04-17T18:34:02.586Z,9.55
2023-04-17T18:36:30.852Z,9.27
2023-04-17T18:38:58.080Z,11.07
2023-04-17T18:41:26.633Z,10.20
2023-04-17T18:43:53.942Z,13.90
2023-04-17T18:46:22.024Z,11.98
2023-04-17T18:48:49.406Z,10.85
2023-04-17T18:51:17.522Z,10.43
2023-04-17T18:53:44.872Z,11.98
2023-04-17T18:56:13.701Z,8.82
2023-04-17T18:58:41.141Z,10.00
2023-04-17T19:01:11.946Z,12.70
2023-04-17T19:03:39.585Z,10.77
2023-04-17T19:06:06.932Z,10.00
2023-04-17T19:08:34.943Z,11.43
2023-04-17T19:11:03.258Z,10.07
2023-04-17T19:13:30.531Z,9.98
2023-04-17T19:15:57.872Z,8.38
2023-04-17T19:18:25.120Z,10.40
2023-04-17T19:20:52.339Z,11.25
2023-04-17T19:23:19.628Z,10.05
2023-04-17T19:25:53.614Z,9.55
2023-04-17T19:28:21.882Z,12.00
2023-04-17T19:30:49.213Z,13.40
2023-04-17T19:33:16.600Z,11.13
2023-04-17T19:35:43.806Z,10.23
2023-04-17T19:38:11.404Z,10.57
2023-04-17T19:40:38.599Z,15.73
2023-04-17T19:43:05.991Z,13.45
2023-04-17T19:45:34.759Z,13.55
2023-04-17T19:48:02.165Z,15.20
2023-04-17T19:50:30.192Z,8.73
2023-04-17T19:52:58.211Z,10.57
2023-04-17T19:55:25.470Z,11.63
2023-04-17T19:57:52.686Z,10.13
2023-04-17T20:00:20.054Z,11.75
2023-04-17T20:02:48.038Z,12.25
2023-04-17T20:05:16.951Z,10.43
2023-04-17T20:07:44.354Z,9.77
2023-04-17T20:10:11.560Z,14.07
2023-04-17T20:12:38.764Z,15.32
2023-04-17T20:15:06.986Z,13.32
2023-04-17T20:17:34.321Z,14.27
2023-04-17T20:20:01.605Z,13.77
2023-04-17T20:22:28.836Z,10.52
2023-04-17T20:24:56.376Z,11.30
2023-04-17T20:27:23.650Z,15.73
2023-04-17T20:29:50.908Z,14.02
2023-04-17T20:32:20.265Z,12.73
2023-04-17T20:34:48.885Z,9.70
2023-04-17T20:37:16.466Z,13.23
2023-04-17T20:39:43.769Z,9.68
2023-04-17T20:42:10.980Z,16.02
2023-04-17T20:44:38.345Z,14.23
2023-04-17T20:47:05.706Z,14.68
2023-04-17T20:49:33.966Z,13.27
2023-04-17T20:52:03.042Z,15.82
2023-04-17T20:54:30.486Z,11.32
2023-04-17T20:56:57.989Z,11.23
2023-04-17T20:59:25.409Z,13.13
2023-04-17T21:01:52.816Z,16.65
2023-04-17T21:04:21.720Z,13.68
2023-04-17T21:06:49.008Z,12.52
2023-04-17T21:09:16.667Z,14.20
2023-04-17T21:11:44.167Z,13.73
2023-04-17T21:14:14.112Z,13.30
2023-04-17T21:16:44.507Z,10.15
2023-04-17T21:19:12.588Z,13.70
2023-04-17T21:21:40.017Z,10.35
2023-04-17T21:24:09.043Z,10.48
2023-04-17T21:26:36.525Z,13.07
2023-04-17T21:29:04.368Z,9.60
2023-04-17T21:31:31.890Z,9.13
2023-04-17T21:33:59.247Z,9.85
2023-04-17T21:36:28.324Z,16.20
2023-04-17T21:38:55.831Z,13.73
2023-04-17T21:41:23.212Z,11.43
2023-04-17T21:43:50.628Z,13.75
2023-04-17T21:46:18.454Z,16.08
2023-04-17T21:48:46.186Z,11.57
2023-04-17T21:51:14.220Z,11.82
2023-04-17T21:53:43.996Z,12.75
2023-04-17T21:56:12.348Z,12.53
2023-04-17T21:58:39.929Z,10.55
2023-04-17T22:01:07.475Z,13.05
2023-04-17T22:03:36.431Z,11.00
2023-04-17T22:06:04.122Z,13.75
2023-04-17T22:08:31.321Z,10.13
2023-04-17T22:10:58.570Z,11.20
2023-04-17T22:13:25.983Z,11.90
2023-04-17T22:15:53.244Z,9.23
2023-04-17T22:18:20.560Z,10.93
2023-04-17T22:20:47.784Z,14.40
2023-04-17T22:23:33.877Z,11.45
2023-04-17T22:26:38.552Z,11.13
2023-04-17T22:29:24.430Z,13.15
2023-04-17T22:32:10.540Z,12.30
2023-04-17T22:35:34.105Z,12.20
2023-04-17T22:38:19.972Z,11.13
2023-04-17T22:42:02.074Z,11.63
2023-04-17T22:44:47.761Z,12.18
2023-04-17T22:47:15.008Z,10.98
2023-04-17T22:49:42.514Z,10.25
2023-04-17T22:52:09.852Z,12.10
2023-04-17T22:54:37.502Z,12.05
2023-04-17T22:57:04.855Z,11.73
2023-04-17T22:59:32.126Z,12.75
2023-04-17T23:01:59.511Z,11.52
2023-04-17T23:04:26.868Z,13.85
2023-04-17T23:06:54.110Z,11.88
2023-04-17T23:09:22.039Z,12.10
2023-04-17T23:11:49.263Z,12.35
2023-04-17T23:14:16.496Z,13.57
2023-04-17T23:16:43.810Z,14.27
2023-04-17T23:19:11.022Z,13.75
2023-04-17T23:21:38.351Z,12.65
2023-04-17T23:24:06.318Z,13.95
2023-04-17T23:26:33.561Z,10.18
2023-04-17T23:29:00.848Z,10.93
2023-04-17T23:31:28.097Z,9.45
2023-04-17T23:33:55.415Z,10.82
2023-04-17T23:36:22.685Z,11.63
2023-04-17T23:38:49.969Z,12.88
2023-04-17T23:41:17.133Z,12.75
2023-04-17T23:43:44.378Z,16.42
2023-04-17T23:46:11.580Z,15.93
2023-04-17T23:48:38.792Z,19.77
2023-04-17T23:51:06.102Z,14.75
2023-04-17T23:53:33.351Z,15.32
2023-04-17T23:56:00.817Z,13.70
2023-04-17T23:58:28.036Z,15.93
